createdAt,value
2019-02-21T00:05:05.359Z,6.70
2019-02-21T00:19:21.004Z,6.70
2019-02-21T00:32:15.224Z,6.50
2019-02-21T00:49:12.683Z,6.30
2019-02-21T00:55:01.847Z,6.10
2019-02-21T00:58:37.522Z,6.10
2019-02-21T01:14:32.827Z,5.80
2019-02-21T01:22:43.041Z,5.80
2019-02-21T01:25:39.348Z,5.70
2019-02-21T01:28:57.707Z,5.70
2019-02-21T01:31:30.870Z,5.70
2019-02-21T01:34:18.305Z,5.50
2019-02-21T01:44:56.187Z,5.60
2019-02-21T01:51:31.895Z,5.50
2019-02-21T02:32:34.633Z,5.80
2019-02-21T02:35:06.829Z,5.80
2019-02-21T02:38:35.703Z,5.80
2019-02-21T02:41:50.185Z,5.80
2019-02-21T02:44:57.735Z,5.80
2019-02-21T02:56:02.083Z,5.80
2019-02-21T03:05:28.656Z,6.00
2019-02-21T03:08:01.385Z,6.00
2019-02-21T03:10:32.602Z,6.00
2019-02-21T03:15:53.143Z,6.20
2019-02-21T03:25:28.271Z,6.20
2019-02-21T03:28:42.243Z,6.30
2019-02-21T03:34:52.021Z,6.40
2019-02-21T03:37:53.644Z,6.50
2019-02-21T03:44:00.135Z,6.70
2019-02-21T03:56:52.722Z,6.60
2019-02-21T03:59:29.292Z,6.70
2019-02-21T04:02:07.606Z,6.70
2019-02-21T04:25:08.486Z,6.70
2019-02-21T04:27:38.419Z,6.70
2019-02-21T04:30:59.626Z,6.70
2019-02-21T04:33:28.849Z,6.50
2019-02-21T04:35:57.878Z,6.60
2019-02-21T04:38:27.099Z,6.70
2019-02-21T04:40:56.305Z,6.80
2019-02-21T04:43:25.561Z,6.80
2019-02-21T04:45:54.800Z,6.80
2019-02-21T04:48:23.960Z,6.80
2019-02-21T04:50:54.492Z,6.70
2019-02-21T04:53:23.850Z,6.70
2019-02-21T04:55:53.176Z,6.70
2019-02-21T04:58:23.199Z,6.70
2019-02-21T05:00:52.521Z,6.70
2019-02-21T05:03:21.784Z,6.80
2019-02-21T05:05:51.023Z,6.80
2019-02-21T05:08:20.167Z,6.70
2019-02-21T05:10:49.471Z,6.80
2019-02-21T05:13:18.630Z,6.80
2019-02-21T05:15:47.926Z,6.70
2019-02-21T05:18:17.063Z,6.60
2019-02-21T05:20:46.262Z,6.50
2019-02-21T05:23:15.451Z,6.60
2019-02-21T05:25:44.673Z,6.60
2019-02-21T05:28:22.296Z,6.60
2019-02-21T05:30:53.045Z,6.70
2019-02-21T05:33:39.706Z,6.70
2019-02-21T05:36:45.900Z,6.70
2019-02-21T05:39:25.022Z,6.70
2019-02-21T05:42:18.884Z,6.60
2019-02-21T05:45:10.751Z,6.60
2019-02-21T05:48:01.301Z,6.60
2019-02-21T05:50:35.547Z,6.70
2019-02-21T05:53:24.080Z,6.60
2019-02-21T05:56:00.966Z,6.50
2019-02-21T05:58:42.294Z,6.40
2019-02-21T06:01:23.396Z,6.30
2019-02-21T06:04:01.228Z,6.20
2019-02-21T06:06:42.237Z,6.20
2019-02-21T06:09:39.606Z,6.20
2019-02-21T06:12:17.296Z,6.10
2019-02-21T06:14:56.026Z,6.00
2019-02-21T06:17:44.353Z,6.00
2019-02-21T06:20:38.805Z,6.10
2019-02-21T06:23:25.585Z,6.20
2019-02-21T06:26:11.917Z,6.20
2019-02-21T06:28:53.577Z,6.20
2019-02-21T06:31:22.988Z,6.20
2019-02-21T06:33:52.099Z,6.20
2019-02-21T06:36:21.377Z,6.30
2019-02-21T06:38:50.596Z,6.20
2019-02-21T06:41:19.913Z,6.30
2019-02-21T06:43:48.780Z,6.30
2019-02-21T06:46:18.037Z,6.20
2019-02-21T06:48:46.877Z,6.20
2019-02-21T06:51:15.793Z,6.20
2019-02-21T06:53:44.882Z,6.20
2019-02-21T06:56:14.186Z,6.20
2019-02-21T06:58:43.467Z,6.20
2019-02-21T07:01:12.673Z,6.30
2019-02-21T07:03:41.902Z,6.40
2019-02-21T07:06:11.098Z,6.40
2019-02-21T07:08:40.326Z,6.30
2019-02-21T07:11:09.950Z,6.30
2019-02-21T07:13:40.574Z,6.30
2019-02-21T07:16:12.977Z,6.30
2019-02-21T07:18:41.705Z,6.30
2019-02-21T07:21:13.240Z,6.30
2019-02-21T07:23:43.686Z,6.40
2019-02-21T07:26:15.398Z,6.50
2019-02-21T07:28:44.697Z,6.40
2019-02-21T07:31:13.929Z,6.50
2019-02-21T07:33:43.164Z,6.50
2019-02-21T07:36:12.310Z,6.50
2019-02-21T07:38:41.524Z,6.50
2019-02-21T07:41:10.997Z,6.50
2019-02-21T07:43:40.414Z,6.60
2019-02-21T07:46:09.809Z,6.70
2019-02-21T07:48:39.141Z,6.80
2019-02-21T07:51:08.537Z,6.90
2019-02-21T07:53:37.889Z,6.90
2019-02-21T07:56:07.515Z,6.90
2019-02-21T07:58:39.472Z,6.90
2019-02-21T08:01:07.793Z,7.00
2019-02-21T08:03:44.320Z,7.10
2019-02-21T08:06:08.135Z,7.20
2019-02-21T08:08:37.363Z,7.30
2019-02-21T08:11:07.215Z,7.30
2019-02-21T08:13:36.553Z,7.30
2019-02-21T08:16:05.723Z,7.40
2019-02-21T08:18:34.958Z,7.70
2019-02-21T08:21:04.183Z,7.70
2019-02-21T08:23:33.433Z,7.70
2019-02-21T08:26:02.596Z,7.70
2019-02-21T08:28:31.779Z,7.80
2019-02-21T08:31:00.985Z,7.90
2019-02-21T08:33:33.484Z,8.00
2019-02-21T08:36:02.886Z,8.10
2019-02-21T08:38:32.085Z,8.20
2019-02-21T08:41:01.585Z,8.30
2019-02-21T08:43:30.660Z,8.40
2019-02-21T08:45:59.892Z,8.40
2019-02-21T08:48:29.015Z,8.40
2019-02-21T08:50:58.331Z,8.40
2019-02-21T08:53:28.256Z,8.40
2019-02-21T08:55:57.715Z,8.40
2019-02-21T08:58:27.164Z,8.30
2019-02-21T09:00:56.398Z,8.20
2019-02-21T09:03:25.628Z,8.00
2019-02-21T09:05:54.994Z,8.00
2019-02-21T09:08:33.093Z,8.00
2019-02-21T09:10:55.212Z,8.20
2019-02-21T09:13:24.415Z,8.40
2019-02-21T09:15:55.806Z,8.90
2019-02-21T09:18:24.545Z,9.30
2019-02-21T09:20:53.742Z,9.60
2019-02-21T09:23:22.941Z,9.80
2019-02-21T09:25:52.118Z,9.90
2019-02-21T09:28:21.321Z,10.00
2019-02-21T09:30:50.441Z,9.90
2019-02-21T09:33:21.317Z,9.80
2019-02-21T09:35:50.718Z,9.90
2019-02-21T09:38:19.947Z,10.40
2019-02-21T09:40:49.150Z,10.80
2019-02-21T09:43:18.318Z,11.60
2019-02-21T09:45:47.595Z,11.60
2019-02-21T09:48:17.223Z,11.80
2019-02-21T09:50:46.448Z,11.50
2019-02-21T09:53:15.908Z,11.20
2019-02-21T09:55:45.112Z,11.10
2019-02-21T09:58:14.260Z,10.90
2019-02-21T10:00:43.427Z,10.80
2019-02-21T10:03:12.651Z,10.90
2019-02-21T10:05:41.937Z,10.90
2019-02-21T10:08:11.552Z,11.00
2019-02-21T10:10:40.822Z,11.20
2019-02-21T10:13:10.030Z,11.40
2019-02-21T10:15:39.304Z,11.60
2019-02-21T10:18:08.898Z,11.90
2019-02-21T10:20:38.399Z,12.50
2019-02-21T10:23:07.473Z,12.70
2019-02-21T10:25:36.621Z,13.10
2019-02-21T10:28:05.863Z,13.80
2019-02-21T10:30:36.359Z,15.30
2019-02-21T10:33:06.497Z,16.00
2019-02-21T10:35:36.620Z,15.70
2019-02-21T10:38:06.776Z,14.90
2019-02-21T10:40:36.468Z,14.50
2019-02-21T10:43:08.242Z,14.10
2019-02-21T10:45:47.417Z,14.30
2019-02-21T10:48:09.340Z,14.20
2019-02-21T10:50:38.807Z,14.30
2019-02-21T10:53:08.347Z,14.10
2019-02-21T10:55:38.004Z,13.70
2019-02-21T10:58:10.499Z,13.80
2019-02-21T11:00:40.137Z,14.10
2019-02-21T11:03:09.680Z,15.30
2019-02-21T11:05:39.425Z,16.30
2019-02-21T11:08:10.221Z,17.20
2019-02-21T11:14:09.861Z,19.50
2019-02-21T11:16:39.984Z,19.60
2019-02-21T11:19:41.586Z,18.70
2019-02-21T11:22:16.714Z,17.90
2019-02-21T11:29:05.344Z,16.20
2019-02-21T11:31:42.662Z,16.00
2019-02-21T11:34:17.246Z,16.20
2019-02-21T11:36:44.290Z,16.80
2019-02-21T11:39:15.193Z,17.10
2019-02-21T11:41:45.137Z,17.00
2019-02-21T11:44:15.220Z,16.60
2019-02-21T11:46:45.454Z,16.70
2019-02-21T11:49:14.989Z,16.70
2019-02-21T11:51:45.388Z,16.80
2019-02-21T11:54:24.151Z,17.20
2019-02-21T11:56:48.047Z,18.50
2019-02-21T11:59:17.995Z,19.30
2019-02-21T12:01:50.776Z,19.60
2019-02-21T12:04:20.748Z,19.80
2019-02-21T12:06:50.573Z,20.00
2019-02-21T12:09:24.411Z,20.80
2019-02-21T12:11:54.756Z,21.50
2019-02-21T12:14:25.004Z,21.40
2019-02-21T12:16:55.231Z,22.40
2019-02-21T12:19:31.239Z,21.10
2019-02-21T12:25:18.015Z,19.40
2019-02-21T12:27:48.498Z,17.90
2019-02-21T12:30:25.062Z,17.40
2019-02-21T12:33:14.676Z,17.20
2019-02-21T12:35:45.694Z,17.20
2019-02-21T12:38:18.825Z,16.90
2019-02-21T12:40:49.048Z,17.00
2019-02-21T12:46:50.591Z,17.80
2019-02-21T12:49:23.814Z,18.10
2019-02-21T12:51:58.658Z,17.80
2019-02-21T12:54:58.913Z,16.90
2019-02-21T12:57:28.910Z,16.60
2019-02-21T13:00:00.794Z,17.50
2019-02-21T13:02:30.846Z,18.40
2019-02-21T13:05:00.721Z,19.20
2019-02-21T13:07:37.556Z,19.30
2019-02-21T13:10:34.963Z,19.50
2019-02-21T13:13:07.778Z,19.80
2019-02-21T13:15:57.233Z,20.30
2019-02-21T13:18:32.920Z,19.70
2019-02-21T13:21:17.462Z,18.50
2019-02-21T13:23:52.964Z,18.10
2019-02-21T13:26:27.072Z,17.50
2019-02-21T13:29:21.001Z,17.70
2019-02-21T13:32:00.851Z,18.00
2019-02-21T13:34:49.720Z,18.40
2019-02-21T13:37:27.963Z,18.70
2019-02-21T13:39:50.870Z,18.20
2019-02-21T13:42:36.455Z,17.60
2019-02-21T13:45:06.649Z,17.10
2019-02-21T13:47:39.104Z,17.10
2019-02-21T13:50:12.758Z,17.50
2019-02-21T13:52:50.144Z,18.10
2019-02-21T13:55:27.478Z,17.60
2019-02-21T13:57:57.234Z,17.20
2019-02-21T14:00:27.512Z,16.80
2019-02-21T14:04:10.560Z,16.40
2019-02-21T14:13:44.354Z,15.70
2019-02-21T14:16:18.447Z,15.90
2019-02-21T14:18:48.864Z,16.00
2019-02-21T14:21:27.225Z,15.90
2019-02-21T14:24:06.628Z,16.00
2019-02-21T14:26:41.239Z,15.90
2019-02-21T14:29:11.352Z,15.60
2019-02-21T14:31:41.403Z,15.30
2019-02-21T14:34:11.308Z,15.20
2019-02-21T14:36:44.314Z,14.90
2019-02-21T14:39:16.178Z,15.00
2019-02-21T14:42:19.983Z,14.90
2019-02-21T14:44:55.890Z,14.80
2019-02-21T14:48:22.327Z,14.60
2019-02-21T14:51:17.514Z,14.30
2019-02-21T14:54:09.644Z,14.20
2019-02-21T14:56:39.618Z,14.10
2019-02-21T14:59:09.402Z,13.90
2019-02-21T15:01:41.502Z,13.80
2019-02-21T15:04:18.470Z,13.80
2019-02-21T15:06:52.413Z,13.80
2019-02-21T15:09:38.912Z,13.90
2019-02-21T15:15:58.753Z,13.70
2019-02-21T15:18:34.247Z,13.80
2019-02-21T15:21:37.579Z,13.90
2019-02-21T15:24:20.179Z,14.00
2019-02-21T15:27:08.059Z,14.10
2019-02-21T15:29:47.413Z,14.10
2019-02-21T15:33:13.465Z,14.00
2019-02-21T15:35:49.763Z,14.00
2019-02-21T15:44:37.324Z,14.30
2019-02-21T15:47:07.542Z,14.50
2019-02-21T16:00:10.192Z,14.70
2019-02-21T16:06:14.125Z,14.30
2019-02-21T16:08:54.155Z,14.10
2019-02-21T16:11:34.124Z,14.00
2019-02-21T16:14:04.653Z,14.00
2019-02-21T16:16:51.124Z,14.00
2019-02-21T16:23:42.171Z,14.10
2019-02-21T16:26:17.677Z,14.00
2019-02-21T16:31:56.079Z,14.20
2019-02-21T16:34:25.340Z,14.30
2019-02-21T16:37:02.053Z,14.40
2019-02-21T16:39:25.303Z,14.30
2019-02-21T16:41:54.138Z,14.20
2019-02-21T16:44:22.984Z,14.20
2019-02-21T16:46:52.076Z,14.30
2019-02-21T16:49:21.410Z,14.40
2019-02-21T16:51:50.678Z,14.50
2019-02-21T16:54:19.722Z,14.50
2019-02-21T16:56:48.647Z,14.50
2019-02-21T16:59:17.502Z,14.50
2019-02-21T17:01:46.414Z,14.40
2019-02-21T17:04:15.654Z,14.40
2019-02-21T17:06:44.674Z,14.40
2019-02-21T17:09:13.666Z,14.30
2019-02-21T17:11:42.689Z,14.40
2019-02-21T17:14:11.639Z,14.40
2019-02-21T17:16:40.463Z,14.40
2019-02-21T17:19:09.299Z,14.40
2019-02-21T17:21:38.182Z,14.40
2019-02-21T17:24:07.107Z,14.30
2019-02-21T17:26:36.002Z,14.30
2019-02-21T17:29:05.274Z,14.30
2019-02-21T17:31:34.359Z,14.30
2019-02-21T17:34:03.370Z,14.20
2019-02-21T17:36:32.839Z,14.20
2019-02-21T17:39:02.354Z,14.10
2019-02-21T17:41:31.816Z,14.10
2019-02-21T17:44:00.939Z,14.10
2019-02-21T17:46:30.066Z,14.00
2019-02-21T17:48:59.263Z,14.00
2019-02-21T17:51:28.238Z,13.90
2019-02-21T17:53:57.315Z,14.00
2019-02-21T17:56:26.328Z,13.90
2019-02-21T17:58:55.600Z,13.80
2019-02-21T18:01:24.629Z,13.80
2019-02-21T18:03:54.130Z,13.80
2019-02-21T18:06:23.247Z,13.70
2019-02-21T18:08:54.883Z,13.70
2019-02-21T18:11:23.173Z,13.60
2019-02-21T18:13:52.480Z,13.70
2019-02-21T18:16:21.393Z,13.70
2019-02-21T18:18:50.363Z,13.70
2019-02-21T18:21:19.396Z,13.70
2019-02-21T18:23:48.307Z,13.70
2019-02-21T18:26:19.066Z,13.70
2019-02-21T18:28:48.023Z,13.70
2019-02-21T18:31:17.131Z,13.70
2019-02-21T18:33:46.322Z,13.60
2019-02-21T18:36:15.262Z,13.60
2019-02-21T18:38:44.370Z,13.50
2019-02-21T18:41:13.598Z,13.20
2019-02-21T18:43:42.549Z,13.00
2019-02-21T18:46:11.538Z,13.00
2019-02-21T18:48:40.711Z,12.70
2019-02-21T18:51:09.714Z,12.70
2019-02-21T18:53:38.761Z,12.60
2019-02-21T18:56:07.973Z,12.40
2019-02-21T18:58:36.905Z,12.30
2019-02-21T19:01:06.131Z,12.30
2019-02-21T19:03:35.489Z,12.00
2019-02-21T19:06:04.506Z,12.00
2019-02-21T19:08:33.538Z,12.10
2019-02-21T19:11:02.473Z,12.00
2019-02-21T19:13:31.325Z,12.00
2019-02-21T19:16:00.319Z,12.00
2019-02-21T19:18:29.392Z,12.10
2019-02-21T19:20:58.395Z,12.20
2019-02-21T19:23:27.249Z,12.20
2019-02-21T19:25:56.330Z,12.20
2019-02-21T19:28:25.266Z,12.20
2019-02-21T19:31:04.613Z,12.10
2019-02-21T19:33:33.623Z,12.10
2019-02-21T19:36:02.565Z,12.00
2019-02-21T19:38:31.562Z,12.00
2019-02-21T19:41:00.830Z,12.10
2019-02-21T19:43:29.848Z,12.20
2019-02-21T19:45:58.913Z,12.40
2019-02-21T19:48:27.721Z,12.60
2019-02-21T19:50:57.657Z,12.70
2019-02-21T19:53:26.762Z,12.70
2019-02-21T19:55:55.801Z,12.90
2019-02-21T19:58:25.052Z,12.90
2019-02-21T20:00:54.120Z,12.90
2019-02-21T20:03:23.252Z,12.90
2019-02-21T20:05:52.255Z,12.90
2019-02-21T20:08:21.899Z,13.00
2019-02-21T20:10:51.279Z,13.00
2019-02-21T20:13:20.223Z,13.00
2019-02-21T20:15:49.867Z,13.10
2019-02-21T20:18:18.934Z,13.10
2019-02-21T20:20:47.963Z,13.00
2019-02-21T20:23:17.830Z,13.00
2019-02-21T20:25:46.814Z,12.90
2019-02-21T20:28:15.852Z,12.90
2019-02-21T20:30:45.004Z,13.00
2019-02-21T20:33:14.190Z,13.00
2019-02-21T20:35:43.181Z,13.00
2019-02-21T20:38:12.262Z,13.10
2019-02-21T20:40:41.196Z,13.10
2019-02-21T20:43:10.309Z,13.10
2019-02-21T20:45:39.499Z,13.10
2019-02-21T20:48:09.723Z,13.10
2019-02-21T20:50:38.797Z,13.10
2019-02-21T20:53:07.725Z,13.10
2019-02-21T20:55:43.492Z,13.20
2019-02-21T20:58:07.603Z,13.10
2019-02-21T21:00:36.629Z,13.00
2019-02-21T21:03:05.738Z,13.10
2019-02-21T21:05:34.790Z,13.20
2019-02-21T21:08:03.830Z,13.10
2019-02-21T21:10:32.857Z,13.10
2019-02-21T21:13:01.850Z,13.10
2019-02-21T21:15:30.865Z,13.10
2019-02-21T21:18:02.210Z,13.10
2019-02-21T21:20:31.049Z,13.00
2019-02-21T21:22:59.894Z,13.00
2019-02-21T21:25:28.845Z,13.00
2019-02-21T21:27:58.092Z,13.00
2019-02-21T21:30:27.037Z,12.90
2019-02-21T21:32:55.982Z,12.90
2019-02-21T21:35:25.086Z,12.60
2019-02-21T21:37:54.042Z,12.70
2019-02-21T21:40:23.106Z,12.70
2019-02-21T21:42:52.057Z,12.70
2019-02-21T21:45:21.150Z,12.60
2019-02-21T21:47:50.226Z,12.60
2019-02-21T21:50:19.572Z,12.70
2019-02-21T21:52:48.866Z,12.70
2019-02-21T21:55:18.469Z,12.70
2019-02-21T21:57:47.357Z,12.70
2019-02-21T22:00:20.563Z,12.60
2019-02-21T22:02:49.617Z,12.50
2019-02-21T22:05:18.639Z,12.50
2019-02-21T22:07:49.301Z,12.30
2019-02-21T22:10:18.276Z,12.20
2019-02-21T22:12:47.523Z,12.00
2019-02-21T22:15:16.702Z,11.90
2019-02-21T22:17:45.577Z,11.90
2019-02-21T22:20:14.573Z,11.70
2019-02-21T22:22:43.614Z,11.60
2019-02-21T22:25:13.053Z,11.70
2019-02-21T22:27:42.106Z,11.60
2019-02-21T22:30:12.832Z,11.50
2019-02-21T22:40:24.137Z,11.50
2019-02-21T23:04:57.168Z,11.20
2019-02-21T23:14:55.605Z,11.30
2019-02-21T23:17:53.650Z,11.40
2019-02-21T23:20:54.712Z,11.50
2019-02-21T23:23:36.477Z,11.60
2019-02-21T23:26:10.702Z,11.80
2019-02-21T23:28:43.662Z,11.90
2019-02-21T23:31:39.444Z,11.90
2019-02-21T23:34:13.330Z,11.90
2019-02-21T23:36:50.914Z,11.90
2019-02-21T23:59:04.281Z,11.30
